Portada
METAR-TAF:

METAR-TAF

Aeroports :

Nosy Be, Madagascar

latitud: 13-19S, longitud: 048-19E, altitud: 10 m

Observació

L'informe es va fer fa 13 hores i 24 minuts, a les 14:00 UTC
Vent calma
Temperatura 28°C
Humitat 79%
Pressió 1013 hPa
Visibilitat 10 km o més
Cel ennuvolat a una alçada de 2000 ft

METAR: FMNN 191400Z 00000KT 9999 BKN020 28/24 Q1013

Hora: 06:24 (03:24 UTC)

Pronòstic

L'informe es va fer fa 4 hores i 24 minuts, a les 23:00 UTC
Pronòstic vàlid del 20 a les 00 UTC al 20 a les 24 UTC
Vent 7 kt del Sud-Oest
Visibilitat 10 km o més
Núvols disperses a una alçada de 2000 ft
Núvols disperses a una alçada de 4000 ft
Probabilitat 40% :
Temporalment
l' 20 a les 17 UTC al 20 a les 24 UTC
Visibilitat: 4000 m
xàfecs de pluja

TAF: FMNN 192300Z 2000/2024 22007KT 9999 SCT020 SCT040 PROB40 TEMPO 2017/2024 4000 SHRA

Observacions i pronòstics meteorològics de més de 4000 aeroports (METAR i TAF).

Les estacions disponibles són els punts grocs i vermells al mapa.

Posi el ratolí al punt desitjat per veure el nom de l'estació.

Feu clic per veure les observacions i els pronòstics meteorològics.

Per canviar el mapa: feu clic els botons verds amb una creu de color negre per apropar; al botó verd amb un guió per allunyar la imatge; o en les fletxes verdes per a mapes adjacents.


METAR-TAF: